createdAt,value
2023-01-03T00:02:29.592Z,96.50
2023-01-03T00:05:21.270Z,96.70
2023-01-03T00:08:06.647Z,96.50
2023-01-03T00:10:52.184Z,96.20
2023-01-03T00:13:40.810Z,96.10
2023-01-03T00:16:29.087Z,96.30
2023-01-03T00:19:15.253Z,96.40
2023-01-03T00:22:01.125Z,96.50
2023-01-03T00:24:48.370Z,96.20
2023-01-03T00:27:35.099Z,96.20
2023-01-03T00:30:23.332Z,96.20
2023-01-03T00:33:08.631Z,96.10
2023-01-03T00:35:54.384Z,96.40
2023-01-03T00:38:40.105Z,96.50
2023-01-03T00:41:26.256Z,96.50
2023-01-03T00:44:14.507Z,96.50
2023-01-03T00:46:59.924Z,96.60
2023-01-03T00:49:45.372Z,96.60
2023-01-03T00:52:31.044Z,96.70
2023-01-03T00:55:16.637Z,96.70
2023-01-03T00:58:02.422Z,96.70
2023-01-03T01:00:47.688Z,96.70
2023-01-03T01:03:34.776Z,96.80
2023-01-03T01:06:23.636Z,96.90
2023-01-03T01:09:14.066Z,97.00
2023-01-03T01:11:59.444Z,97.00
2023-01-03T01:14:45.139Z,97.00
2023-01-03T01:17:35.232Z,96.90
2023-01-03T01:20:26.083Z,96.90
2023-01-03T01:23:18.136Z,96.80
2023-01-03T01:26:05.226Z,96.90
2023-01-03T01:28:52.141Z,97.00
2023-01-03T01:31:39.168Z,96.90
2023-01-03T01:34:24.928Z,96.90
2023-01-03T01:37:10.313Z,96.90
2023-01-03T01:39:56.160Z,97.00
2023-01-03T01:43:00.187Z,97.00
2023-01-03T01:45:46.530Z,97.20
2023-01-03T01:48:35.098Z,97.20
2023-01-03T01:51:22.585Z,97.20
2023-01-03T01:54:08.303Z,97.30
2023-01-03T01:56:53.788Z,97.40
2023-01-03T01:59:39.288Z,97.40
2023-01-03T02:02:25.067Z,97.50
2023-01-03T02:05:11.652Z,97.60
2023-01-03T02:07:58.051Z,97.60
2023-01-03T02:11:09.301Z,97.70
2023-01-03T02:14:31.902Z,97.60
2023-01-03T02:17:41.166Z,97.50
2023-01-03T02:20:56.140Z,97.50
2023-01-03T02:23:53.203Z,97.40
2023-01-03T02:27:11.152Z,97.50
2023-01-03T02:30:37.312Z,97.50
2023-01-03T02:33:31.639Z,97.50
2023-01-03T02:36:30.337Z,97.50
2023-01-03T02:39:24.218Z,97.80
2023-01-03T02:42:43.795Z,97.70
2023-01-03T02:46:05.074Z,97.70
2023-01-03T02:49:04.204Z,97.70
2023-01-03T02:51:54.922Z,97.50
2023-01-03T02:54:45.924Z,97.60
2023-01-03T02:57:51.978Z,97.60
2023-01-03T03:00:43.229Z,97.60
2023-01-03T03:03:35.782Z,97.60
2023-01-03T03:06:33.736Z,97.70
2023-01-03T03:09:19.204Z,97.80
2023-01-03T03:12:23.665Z,97.70
2023-01-03T03:15:12.530Z,97.70
2023-01-03T03:18:07.090Z,97.80
2023-01-03T03:21:15.749Z,97.70
2023-01-03T03:24:37.268Z,97.70
2023-01-03T03:27:44.669Z,97.80
2023-01-03T03:30:35.053Z,97.80
2023-01-03T03:33:23.968Z,98.00
2023-01-03T03:36:23.827Z,98.10
2023-01-03T03:39:33.115Z,98.10
2023-01-03T03:42:54.808Z,98.00
2023-01-03T03:45:50.014Z,98.00
2023-01-03T03:49:16.641Z,98.00
2023-01-03T03:52:06.567Z,97.70
2023-01-03T03:55:01.353Z,97.80
2023-01-03T03:57:53.751Z,97.90
2023-01-03T04:00:41.754Z,98.00
2023-01-03T04:03:31.986Z,98.10
2023-01-03T04:06:31.966Z,98.20
2023-01-03T04:09:17.949Z,98.30
2023-01-03T04:12:03.427Z,98.20
2023-01-03T04:14:49.075Z,98.10
2023-01-03T04:17:34.643Z,98.20
2023-01-03T04:20:20.184Z,98.30
2023-01-03T04:23:09.551Z,98.30
2023-01-03T04:25:57.803Z,98.40
2023-01-03T04:28:43.110Z,98.40
2023-01-03T04:31:28.622Z,98.40
2023-01-03T04:34:16.808Z,98.40
2023-01-03T04:37:02.459Z,98.40
2023-01-03T04:39:47.741Z,98.40
2023-01-03T04:42:51.625Z,98.50
2023-01-03T04:45:37.162Z,98.50
2023-01-03T04:48:22.797Z,98.60
2023-01-03T04:51:08.137Z,98.60
2023-01-03T04:53:56.078Z,98.60
2023-01-03T04:56:42.527Z,98.60
2023-01-03T04:59:28.340Z,98.70
2023-01-03T05:02:13.689Z,98.70
2023-01-03T05:04:59.286Z,98.70
2023-01-03T05:07:50.496Z,98.80
2023-01-03T05:10:41.069Z,98.80
2023-01-03T05:13:26.796Z,98.80
2023-01-03T05:16:14.823Z,98.80
2023-01-03T05:19:00.359Z,99.00
2023-01-03T05:22:07.392Z,99.10
2023-01-03T05:25:11.157Z,99.00
2023-01-03T05:28:05.286Z,98.90
2023-01-03T05:30:50.916Z,98.90
2023-01-03T05:33:39.545Z,99.00
2023-01-03T05:36:25.052Z,99.10
2023-01-03T05:39:10.635Z,99.10
2023-01-03T05:42:01.949Z,99.30
2023-01-03T05:44:51.799Z,99.50
2023-01-03T05:47:37.450Z,99.50
2023-01-03T05:50:26.002Z,99.60
2023-01-03T05:53:14.534Z,99.70
2023-01-03T05:56:05.405Z,99.80
2023-01-03T05:58:50.664Z,99.90
2023-01-03T06:01:36.415Z,99.90
2023-01-03T06:04:26.079Z,99.90
2023-01-03T06:07:11.649Z,99.90
2023-01-03T06:09:58.094Z,99.90
2023-01-03T06:12:45.039Z,99.90
2023-01-03T06:15:30.645Z,99.90
2023-01-03T06:18:17.753Z,99.80
2023-01-03T06:21:04.473Z,99.90
2023-01-03T06:23:49.865Z,99.80
2023-01-03T06:26:35.362Z,99.80
2023-01-03T06:29:22.496Z,99.90
2023-01-03T06:32:09.749Z,99.90
2023-01-03T06:34:55.503Z,99.80
2023-01-03T06:37:41.890Z,99.80
2023-01-03T06:40:34.053Z,99.90
2023-01-03T06:43:22.678Z,99.90
2023-01-03T06:46:28.660Z,99.80
2023-01-03T06:49:35.147Z,99.80
2023-01-03T06:52:41.899Z,99.90
2023-01-03T06:55:27.117Z,99.90
2023-01-03T06:58:14.031Z,99.90
2023-01-03T07:01:04.073Z,99.90
2023-01-03T07:03:49.828Z,99.90
2023-01-03T07:06:39.257Z,99.90
2023-01-03T07:09:24.789Z,99.90
2023-01-03T07:12:28.514Z,99.90
2023-01-03T07:15:14.005Z,99.90
2023-01-03T07:17:59.978Z,99.90
2023-01-03T07:20:45.954Z,99.90
2023-01-03T07:23:32.107Z,99.90
2023-01-03T07:26:17.728Z,99.80
2023-01-03T07:29:08.355Z,99.70
2023-01-03T07:31:54.007Z,99.80
2023-01-03T07:34:39.309Z,99.80
2023-01-03T07:37:24.593Z,99.60
2023-01-03T07:40:13.057Z,99.70
2023-01-03T07:43:17.768Z,99.50
2023-01-03T07:46:10.694Z,99.80
2023-01-03T07:49:09.518Z,99.80
2023-01-03T07:51:56.667Z,99.70
2023-01-03T07:54:42.307Z,99.90
2023-01-03T07:57:27.937Z,99.80
2023-01-03T08:00:16.842Z,99.80
2023-01-03T08:03:10.430Z,99.90
2023-01-03T08:06:00.333Z,99.80
2023-01-03T08:09:08.996Z,99.70
2023-01-03T08:12:12.649Z,99.60
2023-01-03T08:15:00.899Z,99.60
2023-01-03T08:17:46.230Z,99.80
2023-01-03T08:20:31.825Z,99.70
2023-01-03T08:23:17.775Z,99.70
2023-01-03T08:26:23.623Z,99.70
2023-01-03T08:29:09.319Z,99.80
2023-01-03T08:31:59.150Z,99.80
2023-01-03T08:34:48.334Z,99.90
2023-01-03T08:37:33.804Z,99.90
2023-01-03T08:40:19.356Z,99.90
2023-01-03T08:43:06.428Z,99.90
2023-01-03T08:45:51.924Z,99.90
2023-01-03T08:48:37.809Z,99.90
2023-01-03T08:51:26.524Z,99.90
2023-01-03T08:54:14.742Z,99.90
2023-01-03T08:57:00.741Z,99.90
2023-01-03T08:59:46.289Z,99.90
2023-01-03T09:02:35.401Z,99.90
2023-01-03T09:05:21.704Z,99.90
2023-01-03T09:08:07.342Z,99.90
2023-01-03T09:10:55.626Z,99.90
2023-01-03T09:13:41.775Z,99.90
2023-01-03T09:16:27.522Z,99.90
2023-01-03T09:19:12.630Z,99.90
2023-01-03T09:21:58.273Z,99.90
2023-01-03T09:24:43.984Z,99.90
2023-01-03T09:27:29.266Z,99.90
2023-01-03T09:30:15.955Z,99.90
2023-01-03T09:33:01.371Z,99.90
2023-01-03T09:35:46.813Z,99.70
2023-01-03T09:38:33.206Z,99.50
2023-01-03T09:41:26.463Z,99.40
2023-01-03T09:44:12.923Z,99.50
2023-01-03T09:46:58.421Z,99.50
2023-01-03T09:50:11.610Z,99.40
2023-01-03T09:53:09.373Z,99.50
2023-01-03T09:56:16.829Z,99.30
2023-01-03T09:59:32.011Z,99.40
2023-01-03T10:02:45.172Z,99.30
2023-01-03T10:06:01.481Z,99.30
2023-01-03T10:09:05.590Z,99.50
2023-01-03T10:11:56.893Z,99.40
2023-01-03T10:15:13.474Z,99.20
2023-01-03T10:18:20.481Z,99.20
2023-01-03T10:21:23.204Z,99.20
2023-01-03T10:24:26.949Z,99.50
2023-01-03T10:27:19.588Z,99.60
2023-01-03T10:30:07.193Z,99.40
2023-01-03T10:32:59.309Z,99.60
2023-01-03T10:35:45.120Z,99.50
2023-01-03T10:38:31.367Z,99.30
2023-01-03T10:41:31.541Z,99.30
2023-01-03T10:44:29.146Z,99.20
2023-01-03T10:47:17.502Z,98.80
2023-01-03T10:50:05.797Z,98.50
2023-01-03T10:52:59.463Z,98.50
2023-01-03T10:55:47.586Z,98.40
2023-01-03T10:58:36.510Z,98.30
2023-01-03T11:01:27.593Z,98.40
2023-01-03T11:04:20.761Z,98.30
2023-01-03T11:07:09.332Z,98.20
2023-01-03T11:09:57.612Z,98.20
2023-01-03T11:12:42.792Z,98.10
2023-01-03T11:15:37.927Z,98.00
2023-01-03T11:18:27.707Z,97.70
2023-01-03T11:21:15.981Z,97.60
2023-01-03T11:24:27.563Z,97.40
2023-01-03T11:27:29.623Z,97.00
2023-01-03T11:30:53.989Z,96.90
2023-01-03T11:34:02.867Z,96.80
2023-01-03T11:37:30.619Z,96.60
2023-01-03T11:41:00.565Z,96.60
2023-01-03T11:44:07.846Z,96.50
2023-01-03T11:47:23.649Z,96.40
2023-01-03T11:50:17.342Z,96.30
2023-01-03T11:53:06.578Z,96.00
2023-01-03T11:56:13.421Z,96.00
2023-01-03T11:59:20.970Z,96.10
2023-01-03T12:02:36.090Z,96.10
2023-01-03T12:05:38.739Z,96.00
2023-01-03T12:08:38.688Z,96.00
2023-01-03T12:11:56.521Z,95.70
2023-01-03T12:14:51.477Z,95.50
2023-01-03T12:17:57.999Z,95.30
2023-01-03T12:20:56.313Z,95.10
2023-01-03T12:23:51.295Z,94.90
2023-01-03T12:26:41.930Z,94.50
2023-01-03T12:29:46.282Z,94.40
2023-01-03T12:32:53.903Z,94.40
2023-01-03T12:36:01.388Z,94.00
2023-01-03T12:39:11.973Z,93.60
2023-01-03T12:42:23.732Z,93.50
2023-01-03T12:45:09.689Z,93.20
2023-01-03T12:48:11.349Z,93.10
2023-01-03T12:50:59.571Z,92.80
2023-01-03T12:54:16.436Z,93.00
2023-01-03T12:57:42.720Z,92.90
2023-01-03T13:00:54.850Z,92.70
2023-01-03T13:03:44.705Z,92.50
2023-01-03T13:06:39.318Z,92.20
2023-01-03T13:09:36.025Z,91.60
2023-01-03T13:12:30.610Z,90.10
2023-01-03T13:15:36.515Z,89.50
2023-01-03T13:18:22.528Z,89.20
2023-01-03T13:21:49.346Z,88.60
2023-01-03T13:24:49.440Z,88.90
2023-01-03T13:27:36.735Z,89.60
2023-01-03T13:30:31.338Z,89.10
2023-01-03T13:33:20.987Z,88.30
2023-01-03T13:36:06.460Z,87.00
2023-01-03T13:38:52.346Z,87.80
2023-01-03T13:41:40.884Z,87.80
2023-01-03T13:44:26.316Z,88.60
2023-01-03T13:47:36.301Z,88.90
2023-01-03T13:50:31.986Z,89.60
2023-01-03T13:53:52.152Z,90.00
2023-01-03T13:56:43.637Z,90.30
2023-01-03T13:59:42.805Z,90.20
2023-01-03T14:03:02.162Z,90.60
2023-01-03T14:06:28.544Z,90.20
2023-01-03T14:09:43.189Z,90.50
2023-01-03T14:12:52.293Z,90.40
2023-01-03T14:15:37.619Z,90.50
2023-01-03T14:18:28.856Z,90.40
2023-01-03T14:21:25.841Z,90.40
2023-01-03T14:24:27.039Z,90.10
2023-01-03T14:27:17.235Z,90.10
2023-01-03T14:30:03.488Z,90.20
2023-01-03T14:32:49.433Z,90.40
2023-01-03T14:35:43.062Z,90.60
2023-01-03T14:38:31.561Z,90.70
2023-01-03T14:41:38.478Z,90.40
2023-01-03T14:44:23.919Z,90.70
2023-01-03T14:47:17.581Z,90.70
2023-01-03T14:50:08.239Z,91.00
2023-01-03T14:53:02.259Z,91.00
2023-01-03T14:55:55.872Z,91.20
2023-01-03T14:58:47.159Z,91.40
2023-01-03T15:01:32.865Z,91.20
2023-01-03T15:04:18.299Z,91.20
2023-01-03T15:07:13.215Z,91.20
2023-01-03T15:10:14.081Z,91.30
2023-01-03T15:13:04.484Z,91.80
2023-01-03T15:16:29.606Z,91.90
2023-01-03T15:19:25.704Z,92.10
2023-01-03T15:22:18.054Z,92.30
2023-01-03T15:25:17.325Z,92.50
2023-01-03T15:28:27.577Z,92.50
2023-01-03T15:31:37.471Z,92.50
2023-01-03T15:34:29.817Z,92.50
2023-01-03T15:37:20.184Z,92.80
2023-01-03T15:40:06.326Z,92.70
2023-01-03T15:43:11.260Z,92.80
2023-01-03T15:46:15.186Z,93.00
2023-01-03T15:49:06.749Z,93.10
2023-01-03T15:51:56.931Z,93.20
2023-01-03T15:54:43.930Z,93.20
2023-01-03T15:57:30.602Z,93.30
2023-01-03T16:00:22.539Z,93.50
2023-01-03T16:03:20.146Z,93.50
2023-01-03T16:06:06.047Z,93.60
2023-01-03T16:08:53.015Z,93.60
2023-01-03T16:11:39.952Z,93.60
2023-01-03T16:14:34.248Z,93.70
2023-01-03T16:17:25.366Z,93.70
2023-01-03T16:20:16.897Z,93.80
2023-01-03T16:23:02.520Z,93.80
2023-01-03T16:25:48.012Z,93.80
2023-01-03T16:28:33.708Z,93.90
2023-01-03T16:31:36.151Z,94.00
2023-01-03T16:34:26.370Z,94.00
2023-01-03T16:37:15.636Z,93.90
2023-01-03T16:40:00.889Z,93.90
2023-01-03T16:42:47.370Z,94.00
2023-01-03T16:45:32.720Z,94.00
2023-01-03T16:48:22.224Z,94.10
2023-01-03T16:51:25.193Z,94.10
2023-01-03T16:54:15.313Z,94.00
2023-01-03T16:57:00.858Z,94.00
2023-01-03T16:59:47.661Z,94.00
2023-01-03T17:02:33.462Z,93.90
2023-01-03T17:05:29.071Z,94.00
2023-01-03T17:08:21.256Z,93.90
2023-01-03T17:11:08.699Z,93.90
2023-01-03T17:13:59.685Z,93.90
2023-01-03T17:16:45.338Z,93.80
2023-01-03T17:22:36.652Z,93.80
2023-01-03T17:25:22.247Z,93.70
2023-01-03T17:28:10.456Z,93.70
2023-01-03T17:30:57.010Z,93.70
2023-01-03T17:33:42.612Z,93.70
2023-01-03T17:36:33.401Z,93.70
2023-01-03T17:39:19.609Z,93.60
2023-01-03T17:42:21.661Z,93.50
2023-01-03T17:45:31.333Z,93.50
2023-01-03T17:48:35.340Z,93.50
2023-01-03T17:51:21.317Z,93.50
2023-01-03T17:54:08.300Z,93.70
2023-01-03T17:56:53.643Z,93.30
2023-01-03T17:59:42.259Z,93.20
2023-01-03T18:02:38.330Z,93.20
2023-01-03T18:05:31.338Z,93.50
2023-01-03T18:08:19.390Z,93.20
2023-01-03T18:11:07.485Z,93.10
2023-01-03T18:13:52.840Z,93.20
2023-01-03T18:16:41.818Z,93.10
2023-01-03T18:19:29.476Z,93.20
2023-01-03T18:22:15.495Z,93.20
2023-01-03T18:25:00.966Z,93.10
2023-01-03T18:27:57.609Z,93.10
2023-01-03T18:30:43.209Z,93.00
2023-01-03T18:33:31.188Z,93.00
2023-01-03T18:36:30.994Z,93.00
2023-01-03T18:39:27.223Z,93.00
2023-01-03T18:42:32.284Z,93.10
2023-01-03T18:45:17.661Z,93.20
2023-01-03T18:48:03.687Z,93.10
2023-01-03T18:50:57.807Z,93.10
2023-01-03T18:53:47.314Z,93.00
2023-01-03T18:56:37.866Z,92.90
2023-01-03T18:59:28.992Z,92.90
2023-01-03T19:02:20.224Z,92.90
2023-01-03T19:05:06.637Z,92.90
2023-01-03T19:07:53.016Z,92.90
2023-01-03T19:10:40.865Z,92.80
2023-01-03T19:13:49.943Z,92.90
2023-01-03T19:16:37.776Z,92.80
2023-01-03T19:19:23.420Z,92.70
2023-01-03T19:22:35.816Z,92.70
2023-01-03T19:25:27.673Z,92.70
2023-01-03T19:28:13.474Z,92.80
2023-01-03T19:30:58.951Z,92.70
2023-01-03T19:33:44.173Z,92.80
2023-01-03T19:36:32.496Z,92.80
2023-01-03T19:39:24.849Z,92.70
2023-01-03T19:42:37.392Z,92.60
2023-01-03T19:45:31.641Z,92.40
2023-01-03T19:48:27.832Z,92.50
2023-01-03T19:51:16.005Z,92.50
2023-01-03T19:54:01.212Z,92.50
2023-01-03T19:56:47.138Z,92.30
2023-01-03T19:59:36.601Z,92.30
2023-01-03T20:02:33.578Z,92.30
2023-01-03T20:05:30.325Z,92.40
2023-01-03T20:08:15.740Z,92.50
2023-01-03T20:11:02.294Z,92.50
2023-01-03T20:13:48.734Z,92.60
2023-01-03T20:16:34.216Z,92.60
2023-01-03T20:19:21.076Z,92.40
2023-01-03T20:22:06.463Z,92.40
2023-01-03T20:24:52.102Z,92.30
2023-01-03T20:27:44.380Z,92.30
2023-01-03T20:30:32.105Z,92.10
2023-01-03T20:33:17.489Z,91.90
2023-01-03T20:36:14.853Z,91.90
2023-01-03T20:39:05.574Z,91.90
2023-01-03T20:41:51.643Z,92.30
2023-01-03T20:44:36.965Z,92.00
2023-01-03T20:47:24.577Z,91.80
2023-01-03T20:50:26.335Z,91.70
2023-01-03T20:53:27.516Z,91.70
2023-01-03T20:56:13.546Z,91.60
2023-01-03T20:58:59.533Z,91.70
2023-01-03T21:01:47.888Z,91.60
2023-01-03T21:04:33.439Z,91.60
2023-01-03T21:07:48.199Z,91.40
2023-01-03T21:10:37.922Z,91.30
2023-01-03T21:13:23.316Z,91.20
2023-01-03T21:16:31.024Z,91.50
2023-01-03T21:19:24.200Z,91.30
2023-01-03T21:22:21.306Z,91.10
2023-01-03T21:25:08.663Z,91.10
2023-01-03T21:27:54.765Z,91.10
2023-01-03T21:30:43.334Z,91.20
2023-01-03T21:33:28.740Z,91.30
2023-01-03T21:36:26.918Z,91.40
2023-01-03T21:39:12.778Z,91.30
2023-01-03T21:42:16.670Z,91.10
2023-01-03T21:45:01.896Z,91.20
2023-01-03T21:47:47.424Z,91.10
2023-01-03T21:50:35.635Z,90.90
2023-01-03T21:53:23.217Z,90.80
2023-01-03T21:56:10.444Z,91.00
2023-01-03T21:58:56.126Z,90.90
2023-01-03T22:02:13.900Z,90.70
2023-01-03T22:04:58.975Z,90.90
2023-01-03T22:07:44.586Z,90.80
2023-01-03T22:10:30.956Z,90.90
2023-01-03T22:13:16.976Z,91.00
2023-01-03T22:16:07.581Z,91.10
2023-01-03T22:18:53.368Z,91.40
2023-01-03T22:21:38.629Z,91.50
2023-01-03T22:24:26.798Z,91.90
2023-01-03T22:27:11.952Z,92.20
2023-01-03T22:29:57.619Z,92.50
2023-01-03T22:32:43.626Z,92.60
2023-01-03T22:35:29.104Z,92.80
2023-01-03T22:38:14.761Z,92.90
2023-01-03T22:41:00.039Z,93.30
2023-01-03T22:43:46.039Z,93.40
2023-01-03T22:46:34.514Z,93.60
2023-01-03T22:49:20.116Z,93.60
2023-01-03T22:52:06.072Z,93.80
2023-01-03T22:54:51.624Z,94.40
2023-01-03T22:57:39.842Z,94.80
2023-01-03T23:00:25.220Z,95.10
2023-01-03T23:03:10.801Z,95.30
2023-01-03T23:05:58.986Z,95.50
2023-01-03T23:08:45.564Z,95.90
2023-01-03T23:11:51.067Z,96.00
2023-01-03T23:14:36.477Z,96.20
2023-01-03T23:17:40.590Z,96.40
2023-01-03T23:20:32.264Z,96.60
2023-01-03T23:23:17.469Z,96.60
2023-01-03T23:26:04.178Z,96.60
2023-01-03T23:28:50.180Z,96.70
2023-01-03T23:31:41.567Z,97.00
2023-01-03T23:34:29.686Z,97.20
2023-01-03T23:37:14.877Z,97.30
2023-01-03T23:40:00.430Z,97.30
2023-01-03T23:42:46.048Z,97.70
2023-01-03T23:45:31.562Z,97.50
2023-01-03T23:48:18.420Z,97.90
2023-01-03T23:51:08.975Z,98.00
2023-01-03T23:54:00.183Z,98.10
2023-01-03T23:56:45.460Z,98.00
2023-01-03T23:59:31.581Z,98.10
